Main page
METAR-TAF:

METAR-TAF

Airports :

MoD Boscombe Down

Boscombe Down, England

latitude: 51-10N, longitude: 001-45W, elevation: 124 m

Current weather observation

The report was made 34 minutes ago, at 19:20 UTC
Wind 6 kt from the Northeast
Temperature 18°C
Humidity 52%
Pressure 1021 hPa
Visibility 10 km or more

METAR: EGDM 191920Z AUTO 04006KT 9999 NCD 18/08 Q1021

Time: 20:54 (19:54 UTC)

Forecast

The report was made 6 hours and 16 minutes ago, at 13:38 UTC
Forecast valid from 19 at 15 UTC to 19 at 18 UTC
Wind 8 kt from the Northeast
Visibility 10 km or more
Few clouds at a height of 4000 ft

TAF: EGDM 191338Z 1915/1918 05008KT 9999 FEW040

Weather observations and forecasts of more than 4000 airports (METAR and TAF reports).

The available stations are represented by yellow and red dots on the map.

Hover mouse over dot to see the name of the station.

Then click to see weather observations and forecasts.

To change the map : click on the green buttons with a black cross to zoom in, on the green button with a dash to zoom out, or on the green arrows for adjacent maps.


METAR-TAF: